CheckWX is a tool to help pilots better visualize weather data.  It is not intended as a substitute for an official pre-flight weather briefing.

16:54:50 UTC

KHWD METAR
Hayward Executive Airport
Hayward, California, USA
Current

1 hour ago

KHWD 091554Z VRB03KT 10SM CLR 18/12 A2989 RMK AO2 SLP132 T01780117
Observed
Jul-9 @ 15:54 UTC
Wind
  • Variable at 3 KTS
Visibility
10 SM
Flight Rules
VFR
Cloud Levels
  • Clear skies
Temperature
18°C / 64°F
Dewpoint
12°C / 54°F
Humidity
68%
Altimeter
29.89" Hg
Pressure
1012.22 hPa
Previous

2 hours ago

KHWD 091454Z AUTO 00000KT 10SM CLR 16/12 A2989 RMK AO2 SLP130 T01610117 53006
Observed
Jul-9 @ 14:54 UTC
Visibility
10 SM
Flight Rules
VFR
Cloud Levels
  • Clear skies
Temperature
16°C / 61°F
Dewpoint
12°C / 54°F
Humidity
77%
Altimeter
29.89" Hg
Pressure
1012.22 hPa
Previous

3 hours ago

KHWD 091354Z AUTO 06003KT 10SM CLR 14/11 A2988 RMK AO2 SLP125 T01440106
Observed
Jul-9 @ 13:54 UTC
Wind
  • 060° at 3 KTS
Visibility
10 SM
Flight Rules
VFR
Cloud Levels
  • Clear skies
Temperature
14°C / 57°F
Dewpoint
11°C / 52°F
Humidity
82%
Altimeter
29.88" Hg
Pressure
1011.82 hPa